createdAt,value
2018-08-12T00:00:21.374Z,53.90
2018-08-12T00:02:49.626Z,53.90
2018-08-12T00:05:17.885Z,53.90
2018-08-12T00:07:46.543Z,53.90
2018-08-12T00:10:14.821Z,53.80
2018-08-12T00:12:44.134Z,53.90
2018-08-12T00:15:14.535Z,54.50
2018-08-12T00:17:42.888Z,53.80
2018-08-12T00:20:14.040Z,54.00
2018-08-12T00:22:42.806Z,53.90
2018-08-12T00:25:13.261Z,54.40
2018-08-12T00:27:41.760Z,54.00
2018-08-12T00:30:11.619Z,54.00
2018-08-12T00:32:40.293Z,54.00
2018-08-12T00:35:10.946Z,54.00
2018-08-12T00:37:39.420Z,54.00
2018-08-12T00:40:09.498Z,54.00
2018-08-12T00:42:37.765Z,54.10
2018-08-12T00:45:12.280Z,54.00
2018-08-12T00:47:40.574Z,54.00
2018-08-12T00:50:10.218Z,54.10
2018-08-12T00:52:38.529Z,54.10
2018-08-12T00:55:08.316Z,54.00
2018-08-12T00:57:36.575Z,54.10
2018-08-12T01:00:08.756Z,54.10
2018-08-12T01:02:37.233Z,54.10
2018-08-12T01:05:06.661Z,54.10
2018-08-12T01:07:36.830Z,54.10
2018-08-12T01:10:05.859Z,54.10
2018-08-12T01:12:34.294Z,54.10
2018-08-12T01:15:02.878Z,54.10
2018-08-12T01:17:31.114Z,54.70
2018-08-12T01:19:59.746Z,54.10
2018-08-12T01:22:27.979Z,54.10
2018-08-12T01:24:56.282Z,54.10
2018-08-12T01:27:24.986Z,54.10
2018-08-12T01:29:53.210Z,54.10
2018-08-12T01:32:21.442Z,54.10
2018-08-12T01:34:49.717Z,54.10
2018-08-12T01:37:17.958Z,54.90
2018-08-12T01:39:46.262Z,54.10
2018-08-12T01:42:14.566Z,54.70
2018-08-12T01:44:42.798Z,54.10
2018-08-12T01:47:11.023Z,54.20
2018-08-12T01:49:39.762Z,54.20
2018-08-12T01:52:07.981Z,54.20
2018-08-12T01:54:36.205Z,54.20
2018-08-12T01:57:04.622Z,54.30
2018-08-12T01:59:32.886Z,54.20
2018-08-12T02:02:01.095Z,54.20
2018-08-12T02:04:29.858Z,54.20
2018-08-12T02:06:58.237Z,54.20
2018-08-12T02:09:28.561Z,54.20
2018-08-12T02:11:56.824Z,54.30
2018-08-12T02:14:25.090Z,54.20
2018-08-12T02:17:00.125Z,54.30
2018-08-12T02:19:28.350Z,54.20
2018-08-12T02:21:56.594Z,54.20
2018-08-12T02:24:24.982Z,54.20
2018-08-12T02:26:53.399Z,54.90
2018-08-12T02:29:21.615Z,54.20
2018-08-12T02:31:50.319Z,54.20
2018-08-12T02:34:19.559Z,54.30
2018-08-12T02:36:47.871Z,54.30
2018-08-12T02:39:16.128Z,54.30
2018-08-12T02:41:44.395Z,53.80
2018-08-12T02:44:12.936Z,54.30
2018-08-12T02:46:41.193Z,54.30
2018-08-12T02:49:09.425Z,54.40
2018-08-12T02:51:37.886Z,54.30
2018-08-12T02:54:06.354Z,54.40
2018-08-12T02:56:34.591Z,54.30
2018-08-12T02:59:02.879Z,54.40
2018-08-12T03:01:31.095Z,54.30
2018-08-12T03:03:59.330Z,54.40
2018-08-12T03:06:28.058Z,54.40
2018-08-12T03:08:57.925Z,54.40
2018-08-12T03:11:26.155Z,54.40
2018-08-12T03:13:54.442Z,54.40
2018-08-12T03:16:22.682Z,54.40
2018-08-12T03:18:51.290Z,54.40
2018-08-12T03:21:19.575Z,54.40
2018-08-12T03:23:47.811Z,54.40
2018-08-12T03:26:16.081Z,54.40
2018-08-12T03:28:45.134Z,54.40
2018-08-12T03:31:13.366Z,54.50
2018-08-12T03:33:41.610Z,54.40
2018-08-12T03:36:10.027Z,54.40
2018-08-12T03:38:38.267Z,54.50
2018-08-12T03:41:06.501Z,54.40
2018-08-12T03:43:35.174Z,54.50
2018-08-12T03:46:03.391Z,54.50
2018-08-12T03:48:31.640Z,54.40
2018-08-12T03:51:00.813Z,54.50
2018-08-12T03:53:29.082Z,54.40
2018-08-12T03:55:57.333Z,54.50
2018-08-12T03:58:26.047Z,54.40
2018-08-12T04:00:54.275Z,54.50
2018-08-12T04:03:22.511Z,54.50
2018-08-12T04:05:50.837Z,54.50
2018-08-12T04:08:20.793Z,54.40
2018-08-12T04:10:49.088Z,54.40
2018-08-12T04:13:17.562Z,54.50
2018-08-12T04:15:45.790Z,54.40
2018-08-12T04:18:14.117Z,54.40
2018-08-12T04:20:43.014Z,54.50
2018-08-12T04:23:11.257Z,54.50
2018-08-12T04:25:39.475Z,54.50
2018-08-12T04:28:08.233Z,54.50
2018-08-12T04:30:36.484Z,54.50
2018-08-12T04:33:04.722Z,54.50
2018-08-12T04:35:33.337Z,54.50
2018-08-12T04:38:01.566Z,54.50
2018-08-12T04:40:30.094Z,54.50
2018-08-12T04:42:58.727Z,54.50
2018-08-12T04:45:26.946Z,54.60
2018-08-12T04:47:55.190Z,54.50
2018-08-12T04:50:24.167Z,54.60
2018-08-12T04:52:52.478Z,54.60
2018-08-12T04:55:20.701Z,54.50
2018-08-12T04:57:49.618Z,54.50
2018-08-12T05:00:17.907Z,54.60
2018-08-12T05:02:46.152Z,53.80
2018-08-12T05:05:14.682Z,54.00
2018-08-12T05:07:42.933Z,53.80
2018-08-12T05:10:11.252Z,53.70
2018-08-12T05:12:40.298Z,53.60
2018-08-12T05:15:09.392Z,53.50
2018-08-12T05:17:37.730Z,53.40
2018-08-12T05:20:06.351Z,53.20
2018-08-12T05:22:38.433Z,53.20
2018-08-12T05:25:06.969Z,52.70
2018-08-12T05:27:35.454Z,52.40
2018-08-12T05:30:04.550Z,52.20
2018-08-12T05:32:32.801Z,51.90
2018-08-12T05:35:01.353Z,51.60
2018-08-12T05:37:29.583Z,51.60
2018-08-12T05:39:57.838Z,51.50
2018-08-12T05:42:26.780Z,51.90
2018-08-12T05:44:55.051Z,51.20
2018-08-12T05:47:23.350Z,51.20
2018-08-12T05:49:51.922Z,51.00
2018-08-12T05:52:20.237Z,51.00
2018-08-12T05:54:48.490Z,50.90
2018-08-12T05:57:16.929Z,50.70
2018-08-12T05:59:45.078Z,50.90
2018-08-12T06:02:13.338Z,50.70
2018-08-12T06:04:42.504Z,50.70
2018-08-12T06:07:10.813Z,50.80
2018-08-12T06:09:39.069Z,50.70
2018-08-12T06:12:07.651Z,50.80
2018-08-12T06:14:35.893Z,50.80
2018-08-12T06:17:04.219Z,51.30
2018-08-12T06:19:32.678Z,51.40
2018-08-12T06:22:00.963Z,50.20
2018-08-12T06:24:31.497Z,50.00
2018-08-12T06:26:59.797Z,49.60
2018-08-12T06:29:28.053Z,49.50
2018-08-12T06:31:56.321Z,50.60
2018-08-12T06:34:24.680Z,50.50
2018-08-12T06:36:52.882Z,50.70
2018-08-12T06:39:21.118Z,50.10
2018-08-12T06:41:49.630Z,49.20
2018-08-12T06:44:17.859Z,48.20
2018-08-12T06:46:46.087Z,49.30
2018-08-12T06:49:14.356Z,49.90
2018-08-12T06:51:42.653Z,49.70
2018-08-12T06:54:10.849Z,50.00
2018-08-12T06:56:39.462Z,49.60
2018-08-12T06:59:07.753Z,50.20
2018-08-12T07:01:36.001Z,50.70
2018-08-12T07:04:04.858Z,50.50
2018-08-12T07:06:36.273Z,50.80
2018-08-12T07:09:08.898Z,51.00
2018-08-12T07:11:37.301Z,51.10
2018-08-12T07:14:06.477Z,52.00
2018-08-12T07:16:35.097Z,52.20
2018-08-12T07:19:03.361Z,52.10
2018-08-12T07:21:31.786Z,52.30
2018-08-12T07:24:00.316Z,52.20
2018-08-12T07:26:28.582Z,52.90
2018-08-12T07:28:57.943Z,52.20
2018-08-12T07:31:26.297Z,52.20
2018-08-12T07:33:54.557Z,52.00
2018-08-12T07:36:22.986Z,51.90
2018-08-12T07:38:51.333Z,51.50
2018-08-12T07:41:19.542Z,51.20
2018-08-12T07:43:48.025Z,51.20
2018-08-12T07:46:16.280Z,51.20
2018-08-12T07:48:44.567Z,50.50
2018-08-12T07:51:13.242Z,50.70
2018-08-12T07:53:41.481Z,50.50
2018-08-12T07:56:09.787Z,50.30
2018-08-12T07:58:38.123Z,50.30
2018-08-12T08:01:06.555Z,50.20
2018-08-12T08:03:34.813Z,50.30
2018-08-12T08:06:03.566Z,50.10
2018-08-12T08:08:33.246Z,50.00
2018-08-12T08:11:01.715Z,49.70
2018-08-12T08:13:29.994Z,49.40
2018-08-12T08:15:58.234Z,50.00
2018-08-12T08:18:26.545Z,50.00
2018-08-12T08:20:54.871Z,49.20
2018-08-12T08:23:23.132Z,49.30
2018-08-12T08:25:51.563Z,49.00
2018-08-12T08:28:20.502Z,49.40
2018-08-12T08:30:48.708Z,48.30
2018-08-12T08:33:16.954Z,48.00
2018-08-12T08:35:45.537Z,47.60
2018-08-12T08:38:13.787Z,47.90
2018-08-12T08:40:42.030Z,47.10
2018-08-12T08:43:10.394Z,46.50
2018-08-12T08:45:38.655Z,45.80
2018-08-12T08:48:06.909Z,46.10
2018-08-12T08:50:35.895Z,46.20
2018-08-12T08:53:04.147Z,46.60
2018-08-12T08:55:32.438Z,45.30
2018-08-12T08:58:00.909Z,45.60
2018-08-12T09:00:29.167Z,46.20
2018-08-12T09:02:57.443Z,47.00
2018-08-12T09:05:26.176Z,45.70
2018-08-12T09:07:57.318Z,46.30
2018-08-12T09:10:25.535Z,45.90
2018-08-12T09:12:54.370Z,44.50
2018-08-12T09:15:22.631Z,45.80
2018-08-12T09:17:50.984Z,45.10
2018-08-12T09:20:20.489Z,44.70
2018-08-12T09:22:48.754Z,44.90
2018-08-12T09:25:17.719Z,46.00
2018-08-12T09:27:45.987Z,45.60
2018-08-12T09:30:16.355Z,44.90
2018-08-12T09:32:45.315Z,45.00
2018-08-12T09:35:13.577Z,45.70
2018-08-12T09:37:41.875Z,47.20
2018-08-12T09:40:14.400Z,48.30
2018-08-12T09:42:43.677Z,49.00
2018-08-12T09:45:14.910Z,48.90
2018-08-12T09:47:43.191Z,49.60
2018-08-12T09:50:15.681Z,50.00
2018-08-12T09:52:44.334Z,49.90
2018-08-12T09:55:13.261Z,49.50
2018-08-12T09:57:41.540Z,49.60
2018-08-12T10:00:17.562Z,50.60
2018-08-12T10:02:45.813Z,50.40
2018-08-12T10:05:14.162Z,50.90
2018-08-12T10:07:44.631Z,50.90
2018-08-12T10:10:12.942Z,51.00
2018-08-12T10:12:41.742Z,51.20
2018-08-12T10:15:10.503Z,51.90
2018-08-12T10:17:39.962Z,51.50
2018-08-12T10:20:09.040Z,51.80
2018-08-12T10:22:37.574Z,52.70
2018-08-12T10:25:07.040Z,52.30
2018-08-12T10:27:35.325Z,52.40
2018-08-12T10:30:04.575Z,52.50
2018-08-12T10:32:32.849Z,52.50
2018-08-12T10:35:01.112Z,52.30
2018-08-12T10:37:29.375Z,52.50
2018-08-12T10:39:57.715Z,52.50
2018-08-12T10:42:25.989Z,52.60
2018-08-12T10:44:55.063Z,52.70
2018-08-12T10:47:23.316Z,52.70
2018-08-12T10:49:51.566Z,53.30
2018-08-12T10:52:20.175Z,53.00
2018-08-12T10:54:48.466Z,53.10
2018-08-12T10:57:16.751Z,52.90
2018-08-12T10:59:45.510Z,53.40
2018-08-12T11:02:14.171Z,53.70
2018-08-12T11:04:42.609Z,53.90
2018-08-12T11:07:10.911Z,54.10
2018-08-12T11:09:40.974Z,53.90
2018-08-12T11:12:09.880Z,53.70
2018-08-12T11:14:38.103Z,53.70
2018-08-12T11:17:06.364Z,53.80
2018-08-12T11:19:34.926Z,53.80
2018-08-12T11:22:03.182Z,53.80
2018-08-12T11:24:31.446Z,53.80
2018-08-12T11:26:59.942Z,53.90
2018-08-12T11:29:28.286Z,54.30
2018-08-12T11:31:56.746Z,53.90
2018-08-12T11:34:25.058Z,53.80
2018-08-12T11:36:53.277Z,53.90
2018-08-12T11:39:21.551Z,54.20
2018-08-12T11:41:50.100Z,54.40
2018-08-12T11:44:18.351Z,54.30
2018-08-12T11:46:46.634Z,54.30
2018-08-12T11:49:15.569Z,54.70
2018-08-12T11:51:43.814Z,54.60
2018-08-12T11:54:12.205Z,55.10
2018-08-12T11:56:40.794Z,55.20
2018-08-12T11:59:09.121Z,55.30
2018-08-12T12:01:37.453Z,55.40
2018-08-12T12:04:06.155Z,55.70
2018-08-12T12:06:35.050Z,56.10
2018-08-12T12:09:06.677Z,56.40
2018-08-12T12:11:35.456Z,57.00
2018-08-12T12:14:04.358Z,56.90
2018-08-12T12:16:32.623Z,57.20
2018-08-12T12:19:01.021Z,57.00
2018-08-12T12:21:29.287Z,57.20
2018-08-12T12:23:57.629Z,57.00
2018-08-12T12:26:26.688Z,57.40
2018-08-12T12:28:54.959Z,57.10
2018-08-12T12:31:23.251Z,57.30
2018-08-12T12:33:51.654Z,57.10
2018-08-12T12:36:19.916Z,57.20
2018-08-12T12:38:48.320Z,57.50
2018-08-12T12:41:16.706Z,57.90
2018-08-12T12:43:44.986Z,57.70
2018-08-12T12:46:13.257Z,58.70
2018-08-12T12:48:42.153Z,59.70
2018-08-12T12:51:10.498Z,60.30
2018-08-12T12:53:38.764Z,60.50
2018-08-12T12:56:07.334Z,60.20
2018-08-12T12:58:35.567Z,60.80
2018-08-12T13:01:03.875Z,60.90
2018-08-12T13:03:32.780Z,60.80
2018-08-12T13:06:01.047Z,59.50
2018-08-12T13:08:32.523Z,59.10
2018-08-12T13:11:00.758Z,59.10
2018-08-12T13:13:29.027Z,58.90
2018-08-12T13:15:57.650Z,59.30
2018-08-12T13:18:25.906Z,58.80
2018-08-12T13:20:54.270Z,58.70
2018-08-12T13:23:22.594Z,58.80
2018-08-12T13:25:50.958Z,58.80
2018-08-12T13:28:19.255Z,58.80
2018-08-12T13:30:48.329Z,58.70
2018-08-12T13:33:16.589Z,59.30
2018-08-12T13:35:44.863Z,58.70
2018-08-12T13:38:13.179Z,58.70
2018-08-12T13:40:41.429Z,58.70
2018-08-12T13:43:09.794Z,58.60
2018-08-12T13:45:38.298Z,58.70
2018-08-12T13:48:06.590Z,59.30
2018-08-12T13:50:35.022Z,58.70
2018-08-12T13:53:04.408Z,58.70
2018-08-12T13:55:32.637Z,58.60
2018-08-12T13:58:00.924Z,58.60
2018-08-12T14:00:29.290Z,58.60
2018-08-12T14:02:57.581Z,58.60
2018-08-12T14:05:25.833Z,58.50
2018-08-12T14:07:55.445Z,58.50
2018-08-12T14:10:23.719Z,58.50
2018-08-12T14:12:51.998Z,58.50
2018-08-12T14:15:20.897Z,58.50
2018-08-12T14:17:49.938Z,58.50
2018-08-12T14:20:19.328Z,58.40
2018-08-12T14:22:47.604Z,58.40
2018-08-12T14:25:15.869Z,58.40
2018-08-12T14:27:45.524Z,58.40
2018-08-12T14:30:16.054Z,58.50
2018-08-12T14:32:45.074Z,58.40
2018-08-12T14:35:13.403Z,58.40
2018-08-12T14:37:41.713Z,58.40
2018-08-12T14:40:11.486Z,58.40
2018-08-12T14:42:39.726Z,58.40
2018-08-12T14:45:09.522Z,58.30
2018-08-12T14:47:38.217Z,57.80
2018-08-12T14:50:09.293Z,58.40
2018-08-12T14:52:37.576Z,58.30
2018-08-12T14:55:06.641Z,58.30
2018-08-12T14:57:35.090Z,58.30
2018-08-12T15:00:04.095Z,58.30
2018-08-12T15:02:32.421Z,58.30
2018-08-12T15:05:00.725Z,58.30
2018-08-12T15:07:32.376Z,58.30
2018-08-12T15:10:00.885Z,58.20
2018-08-12T15:12:29.225Z,58.30
2018-08-12T15:14:57.682Z,58.30
2018-08-12T15:17:25.948Z,58.30
2018-08-12T15:19:54.286Z,58.30
2018-08-12T15:22:23.134Z,58.20
2018-08-12T15:24:51.446Z,58.20
2018-08-12T15:27:19.706Z,58.30
2018-08-12T15:29:48.735Z,58.30
2018-08-12T15:32:17.058Z,58.20
2018-08-12T15:34:45.342Z,58.30
2018-08-12T15:37:13.901Z,58.10
2018-08-12T15:39:42.130Z,58.10
2018-08-12T15:42:10.431Z,58.10
2018-08-12T15:44:38.741Z,58.10
2018-08-12T15:47:07.023Z,58.10
2018-08-12T15:49:35.347Z,58.10
2018-08-12T15:52:03.962Z,58.00
2018-08-12T15:54:32.226Z,58.00
2018-08-12T15:57:00.546Z,58.00
2018-08-12T15:59:28.813Z,57.90
2018-08-12T16:01:57.148Z,58.00
2018-08-12T16:04:25.614Z,57.90
2018-08-12T16:06:53.962Z,57.90
2018-08-12T16:09:23.642Z,57.90
2018-08-12T16:11:52.194Z,57.80
2018-08-12T16:14:20.816Z,57.80
2018-08-12T16:16:49.058Z,57.90
2018-08-12T16:19:17.326Z,57.90
2018-08-12T16:21:45.858Z,58.10
2018-08-12T16:24:14.144Z,57.80
2018-08-12T16:26:42.387Z,57.80
2018-08-12T16:29:11.386Z,57.70
2018-08-12T16:31:39.682Z,57.80
2018-08-12T16:34:07.954Z,57.70
2018-08-12T16:36:36.638Z,57.80
2018-08-12T16:39:08.546Z,57.70
2018-08-12T16:41:36.980Z,58.30
2018-08-12T16:44:05.237Z,57.60
2018-08-12T16:46:33.498Z,57.60
2018-08-12T16:49:02.630Z,57.70
2018-08-12T16:51:31.178Z,57.60
2018-08-12T16:53:59.735Z,57.60
2018-08-12T16:56:28.183Z,57.60
2018-08-12T16:58:56.470Z,57.60
2018-08-12T17:01:25.564Z,57.60
2018-08-12T17:03:54.278Z,57.50
2018-08-12T17:06:23.711Z,57.70
2018-08-12T17:08:54.071Z,57.80
2018-08-12T17:11:23.170Z,57.80
2018-08-12T17:13:51.436Z,57.60
2018-08-12T17:16:19.689Z,57.10
2018-08-12T17:18:48.414Z,57.10
2018-08-12T17:21:16.693Z,57.10
2018-08-12T17:23:44.960Z,56.90
2018-08-12T17:26:14.575Z,56.90
2018-08-12T17:28:42.937Z,56.80
2018-08-12T17:31:11.203Z,56.60
2018-08-12T17:33:39.506Z,56.60
2018-08-12T17:36:07.780Z,56.50
2018-08-12T17:38:36.016Z,57.00
2018-08-12T17:41:04.466Z,56.20
2018-08-12T17:43:32.709Z,56.00
2018-08-12T17:46:00.994Z,55.90
2018-08-12T17:48:30.081Z,56.00
2018-08-12T17:50:58.426Z,56.10
2018-08-12T17:53:26.763Z,55.80
2018-08-12T17:55:55.226Z,55.60
2018-08-12T17:58:23.628Z,55.60
2018-08-12T18:00:51.974Z,55.80
2018-08-12T18:03:20.984Z,56.50
2018-08-12T18:05:49.249Z,56.60
2018-08-12T18:08:19.703Z,56.90
2018-08-12T18:10:48.573Z,57.00
2018-08-12T18:13:16.935Z,57.20
2018-08-12T18:15:45.288Z,57.40
2018-08-12T18:18:14.044Z,57.80
2018-08-12T18:20:42.328Z,57.60
2018-08-12T18:23:10.581Z,57.60
2018-08-12T18:25:39.663Z,57.60
2018-08-12T18:28:07.930Z,57.40
2018-08-12T18:30:36.237Z,57.50
2018-08-12T18:33:04.602Z,57.50
2018-08-12T18:35:32.877Z,57.50
2018-08-12T18:38:01.136Z,57.60
2018-08-12T18:40:29.616Z,58.50
2018-08-12T18:42:57.909Z,57.90
2018-08-12T18:45:26.208Z,57.80
2018-08-12T18:47:55.283Z,57.90
2018-08-12T18:50:23.570Z,58.60
2018-08-12T18:52:51.890Z,58.10
2018-08-12T18:55:20.827Z,57.90
2018-08-12T18:57:49.067Z,58.00
2018-08-12T19:00:17.323Z,58.20
2018-08-12T19:02:45.867Z,58.20
2018-08-12T19:05:14.419Z,58.20
2018-08-12T19:07:43.753Z,58.40
2018-08-12T19:10:12.342Z,58.30
2018-08-12T19:12:41.594Z,58.30
2018-08-12T19:15:10.859Z,58.50
2018-08-12T19:17:39.455Z,58.40
2018-08-12T19:20:08.663Z,58.20
2018-08-12T19:22:37.449Z,58.10
2018-08-12T19:25:06.496Z,58.00
2018-08-12T19:27:35.089Z,58.00
2018-08-12T19:30:03.395Z,58.10
2018-08-12T19:32:31.846Z,58.50
2018-08-12T19:35:00.194Z,58.50
2018-08-12T19:37:28.531Z,58.50
2018-08-12T19:39:57.404Z,59.00
2018-08-12T19:42:26.722Z,59.20
2018-08-12T19:44:54.983Z,59.50
2018-08-12T19:47:23.627Z,59.40
2018-08-12T19:49:51.901Z,59.50
2018-08-12T19:52:20.162Z,59.80
2018-08-12T19:54:48.793Z,60.50
2018-08-12T19:57:17.033Z,61.00
2018-08-12T19:59:45.315Z,61.10
2018-08-12T20:02:14.455Z,61.40
2018-08-12T20:04:42.825Z,61.40
2018-08-12T20:07:11.099Z,61.60
2018-08-12T20:09:40.321Z,61.90
2018-08-12T20:12:08.717Z,62.10
2018-08-12T20:14:36.952Z,62.60
2018-08-12T20:17:05.513Z,62.50
2018-08-12T20:19:33.769Z,63.00
2018-08-12T20:22:02.270Z,62.20
2018-08-12T20:24:30.555Z,62.60
2018-08-12T20:26:58.873Z,63.10
2018-08-12T20:29:27.493Z,63.30
2018-08-12T20:31:55.730Z,63.10
2018-08-12T20:34:23.990Z,63.60
2018-08-12T20:36:52.294Z,63.60
2018-08-12T20:39:20.555Z,63.80
2018-08-12T20:41:48.782Z,64.20
2018-08-12T20:44:17.147Z,64.60
2018-08-12T20:46:45.407Z,64.60
2018-08-12T20:49:13.651Z,65.40
2018-08-12T20:51:42.751Z,64.90
2018-08-12T20:54:10.995Z,65.20
2018-08-12T20:56:39.257Z,65.20
2018-08-12T20:59:07.782Z,65.10
2018-08-12T21:01:36.108Z,65.80
2018-08-12T21:04:04.349Z,65.70
2018-08-12T21:06:35.538Z,65.40
2018-08-12T21:09:07.971Z,65.50
2018-08-12T21:11:36.552Z,65.90
2018-08-12T21:14:04.797Z,66.80
2018-08-12T21:16:33.044Z,66.40
2018-08-12T21:19:01.363Z,66.30
2018-08-12T21:21:29.582Z,65.70
2018-08-12T21:23:57.921Z,65.60
2018-08-12T21:26:27.430Z,66.20
2018-08-12T21:28:55.716Z,65.00
2018-08-12T21:31:24.032Z,65.00
2018-08-12T21:33:52.362Z,64.90
2018-08-12T21:36:20.595Z,64.60
2018-08-12T21:38:48.850Z,64.30
2018-08-12T21:41:17.131Z,64.00
2018-08-12T21:43:45.370Z,63.70
2018-08-12T21:46:13.635Z,63.60
2018-08-12T21:48:42.609Z,63.30
2018-08-12T21:51:10.877Z,63.00
2018-08-12T21:53:39.128Z,62.60
2018-08-12T21:56:07.878Z,62.40
2018-08-12T21:58:36.104Z,62.20
2018-08-12T22:01:04.443Z,62.00
2018-08-12T22:03:33.056Z,61.80
2018-08-12T22:06:01.421Z,61.70
2018-08-12T22:08:31.103Z,62.30
2018-08-12T22:11:00.302Z,61.50
2018-08-12T22:13:28.526Z,61.40
2018-08-12T22:15:56.766Z,61.20
2018-08-12T22:18:25.049Z,61.10
2018-08-12T22:20:53.270Z,61.00
2018-08-12T22:23:21.501Z,60.90
2018-08-12T22:25:50.788Z,60.80
2018-08-12T22:28:19.010Z,60.70
2018-08-12T22:30:47.261Z,60.50
2018-08-12T22:33:15.564Z,60.40
2018-08-12T22:35:43.812Z,60.40
2018-08-12T22:38:12.148Z,60.90
2018-08-12T22:40:40.431Z,60.20
2018-08-12T22:43:08.671Z,60.00
2018-08-12T22:45:36.915Z,59.90
2018-08-12T22:48:06.602Z,59.80
2018-08-12T22:50:34.845Z,59.80
2018-08-12T22:53:03.102Z,59.70
2018-08-12T22:55:31.543Z,59.60
2018-08-12T22:57:59.770Z,59.50
2018-08-12T23:00:28.012Z,59.50
2018-08-12T23:02:56.570Z,59.40
2018-08-12T23:05:24.827Z,59.30
2018-08-12T23:07:54.680Z,59.20
2018-08-12T23:10:22.929Z,59.10
2018-08-12T23:12:51.250Z,59.20
2018-08-12T23:15:30.992Z,59.10
2018-08-12T23:17:59.218Z,59.00
2018-08-12T23:20:27.464Z,59.00
2018-08-12T23:22:56.606Z,58.80
2018-08-12T23:25:24.899Z,58.80
2018-08-12T23:27:53.107Z,58.70
2018-08-12T23:30:21.750Z,58.70
2018-08-12T23:32:50.064Z,58.60
2018-08-12T23:35:18.302Z,58.40
2018-08-12T23:37:46.792Z,58.40
2018-08-12T23:40:15.052Z,58.40
2018-08-12T23:42:43.348Z,58.30
2018-08-12T23:45:11.715Z,58.30
2018-08-12T23:47:39.969Z,58.20
2018-08-12T23:50:08.191Z,58.10
2018-08-12T23:52:36.502Z,58.00
2018-08-12T23:55:04.771Z,58.00
2018-08-12T23:57:33.085Z,58.00
